createdAt,value
2023-02-07T00:01:29.756Z,12.18
2023-02-07T00:03:58.927Z,12.20
2023-02-07T00:06:30.642Z,12.45
2023-02-07T00:09:00.142Z,12.70
2023-02-07T00:11:27.485Z,11.60
2023-02-07T00:13:57.684Z,11.23
2023-02-07T00:16:26.161Z,14.02
2023-02-07T00:18:54.081Z,11.15
2023-02-07T00:21:23.932Z,12.68
2023-02-07T00:23:52.797Z,10.57
2023-02-07T00:26:23.824Z,11.63
2023-02-07T00:28:53.736Z,11.25
2023-02-07T00:31:30.379Z,13.23
2023-02-07T00:34:03.530Z,13.10
2023-02-07T00:36:33.431Z,12.45
2023-02-07T00:39:08.141Z,13.95
2023-02-07T00:41:35.478Z,12.60
2023-02-07T00:44:02.326Z,12.73
2023-02-07T00:46:29.319Z,9.82
2023-02-07T00:48:56.727Z,11.98
2023-02-07T00:51:26.745Z,11.82
2023-02-07T00:53:55.839Z,15.48
2023-02-07T00:56:26.273Z,13.35
2023-02-07T00:58:53.386Z,10.60
2023-02-07T01:01:21.407Z,11.70
2023-02-07T01:03:48.615Z,10.40
2023-02-07T01:06:15.423Z,10.52
2023-02-07T01:08:42.532Z,11.98
2023-02-07T01:11:14.181Z,12.57
2023-02-07T01:13:43.913Z,13.32
2023-02-07T01:16:31.728Z,12.17
2023-02-07T01:19:02.097Z,12.27
2023-02-07T01:21:29.061Z,11.00
2023-02-07T01:23:58.587Z,10.32
2023-02-07T01:26:26.741Z,11.25
2023-02-07T01:28:55.962Z,12.38
2023-02-07T01:31:24.210Z,13.18
2023-02-07T01:34:00.349Z,13.43
2023-02-07T01:36:29.600Z,9.65
2023-02-07T01:38:57.329Z,9.27
2023-02-07T01:41:26.992Z,10.60
2023-02-07T01:44:07.853Z,9.17
2023-02-07T01:46:36.642Z,7.95
2023-02-07T01:49:13.211Z,11.63
2023-02-07T01:51:48.478Z,11.57
2023-02-07T01:54:16.943Z,10.50
2023-02-07T01:56:52.544Z,11.65
2023-02-07T01:59:20.489Z,9.93
2023-02-07T02:01:47.787Z,11.07
2023-02-07T02:04:14.768Z,10.88
2023-02-07T02:06:42.016Z,9.68
2023-02-07T02:09:15.987Z,10.13
2023-02-07T02:12:10.314Z,9.15
2023-02-07T02:15:31.475Z,8.27
2023-02-07T02:18:19.883Z,8.95
2023-02-07T02:21:23.264Z,8.73
2023-02-07T02:24:08.307Z,13.32
2023-02-07T02:27:46.718Z,12.43
2023-02-07T02:30:50.187Z,8.65
2023-02-07T02:33:38.550Z,10.68
2023-02-07T02:36:38.575Z,12.60
2023-02-07T02:39:11.781Z,10.80
2023-02-07T02:42:00.917Z,10.18
2023-02-07T02:44:46.064Z,11.05
2023-02-07T02:47:14.038Z,12.98
2023-02-07T02:49:43.811Z,10.18
2023-02-07T02:52:10.633Z,9.10
2023-02-07T02:54:40.546Z,9.73
2023-02-07T02:57:58.778Z,10.55
2023-02-07T03:00:48.842Z,8.52
2023-02-07T03:03:41.826Z,8.43
2023-02-07T03:06:30.136Z,7.75
2023-02-07T03:09:37.166Z,9.20
2023-02-07T03:12:19.692Z,7.32
2023-02-07T03:14:58.927Z,9.15
2023-02-07T03:17:51.193Z,9.90
2023-02-07T03:20:31.783Z,9.35
2023-02-07T03:23:02.324Z,9.32
2023-02-07T03:25:31.588Z,8.50
2023-02-07T03:27:58.844Z,8.27
2023-02-07T03:30:33.562Z,10.75
2023-02-07T03:33:11.708Z,11.38
2023-02-07T03:36:09.581Z,8.60
2023-02-07T03:38:37.892Z,8.02
2023-02-07T03:41:27.623Z,9.90
2023-02-07T03:43:58.037Z,8.15
2023-02-07T03:46:24.988Z,8.90
2023-02-07T03:48:51.895Z,8.82
2023-02-07T03:51:18.797Z,8.73
2023-02-07T03:53:45.629Z,11.40
2023-02-07T03:56:12.431Z,7.65
2023-02-07T03:58:39.264Z,10.73
2023-02-07T04:01:06.142Z,10.25
2023-02-07T04:03:33.008Z,10.45
2023-02-07T04:06:00.017Z,10.32
2023-02-07T04:08:26.938Z,8.20
2023-02-07T04:11:02.761Z,11.15
2023-02-07T04:13:30.455Z,8.57
2023-02-07T04:15:57.548Z,9.90
2023-02-07T04:18:24.428Z,9.15
2023-02-07T04:20:51.248Z,11.38
2023-02-07T04:23:18.095Z,8.35
2023-02-07T04:25:44.880Z,8.80
2023-02-07T04:28:11.742Z,10.32
2023-02-07T04:30:38.613Z,10.32
2023-02-07T04:33:05.490Z,10.10
2023-02-07T04:35:32.353Z,10.23
2023-02-07T04:37:59.193Z,10.93
2023-02-07T04:40:26.090Z,10.45
2023-02-07T04:42:52.961Z,9.32
2023-02-07T04:45:19.764Z,12.45
2023-02-07T04:47:46.579Z,11.38
2023-02-07T04:50:13.600Z,12.30
2023-02-07T04:52:41.443Z,10.60
2023-02-07T04:55:09.832Z,12.10
2023-02-07T04:57:36.873Z,14.73
2023-02-07T05:00:04.935Z,11.65
2023-02-07T05:02:31.808Z,9.20
2023-02-07T05:04:59.727Z,11.57
2023-02-07T05:07:26.648Z,12.00
2023-02-07T05:09:53.629Z,11.65
2023-02-07T05:12:20.499Z,9.82
2023-02-07T05:14:47.352Z,11.43
2023-02-07T05:17:14.545Z,11.13
2023-02-07T05:19:41.383Z,10.35
2023-02-07T05:22:08.212Z,11.63
2023-02-07T05:24:35.059Z,11.68
2023-02-07T05:27:01.961Z,10.50
2023-02-07T05:29:28.791Z,8.40
2023-02-07T05:32:13.951Z,9.07
2023-02-07T05:34:40.984Z,8.73
2023-02-07T05:37:07.773Z,10.30
2023-02-07T05:39:34.615Z,8.52
2023-02-07T05:42:01.473Z,11.07
2023-02-07T05:44:28.347Z,11.38
2023-02-07T05:46:55.218Z,11.43
2023-02-07T05:49:22.040Z,9.15
2023-02-07T05:51:48.840Z,9.48
2023-02-07T05:54:15.660Z,10.82
2023-02-07T05:56:42.496Z,8.48
2023-02-07T05:59:09.328Z,8.57
2023-02-07T06:01:37.404Z,8.65
2023-02-07T06:04:04.428Z,8.98
2023-02-07T06:06:31.232Z,9.73
2023-02-07T06:08:58.355Z,9.73
2023-02-07T06:11:25.265Z,10.13
2023-02-07T06:13:52.172Z,9.88
2023-02-07T06:16:19.194Z,10.90
2023-02-07T06:18:46.128Z,9.27
2023-02-07T06:21:13.083Z,9.40
2023-02-07T06:23:40.199Z,9.77
2023-02-07T06:26:07.110Z,11.38
2023-02-07T06:28:34.072Z,11.32
2023-02-07T06:31:01.000Z,8.95
2023-02-07T06:33:27.932Z,11.52
2023-02-07T06:35:55.886Z,9.73
2023-02-07T06:38:30.798Z,8.48
2023-02-07T06:40:57.609Z,10.77
2023-02-07T06:43:25.582Z,9.13
2023-02-07T06:45:52.446Z,10.63
2023-02-07T06:48:19.319Z,10.88
2023-02-07T06:50:50.358Z,8.05
2023-02-07T06:53:19.477Z,13.30
2023-02-07T06:55:46.482Z,11.07
2023-02-07T06:58:13.512Z,11.07
2023-02-07T07:00:40.349Z,15.05
2023-02-07T07:03:07.272Z,8.68
2023-02-07T07:05:34.223Z,13.13
2023-02-07T07:08:01.576Z,8.48
2023-02-07T07:10:28.483Z,9.55
2023-02-07T07:12:55.396Z,12.82
2023-02-07T07:15:22.211Z,11.32
2023-02-07T07:17:49.008Z,9.85
2023-02-07T07:20:16.048Z,12.60
2023-02-07T07:22:43.422Z,10.40
2023-02-07T07:25:12.599Z,13.13
2023-02-07T07:27:39.399Z,11.82
2023-02-07T07:30:10.229Z,10.43
2023-02-07T07:32:37.632Z,11.05
2023-02-07T07:35:05.943Z,11.27
2023-02-07T07:37:33.395Z,10.85
2023-02-07T07:40:00.298Z,11.10
2023-02-07T07:42:27.336Z,9.05
2023-02-07T07:44:54.152Z,11.93
2023-02-07T07:47:20.977Z,9.60
2023-02-07T07:49:48.104Z,10.05
2023-02-07T07:52:15.023Z,10.77
2023-02-07T07:54:45.451Z,11.45
2023-02-07T07:57:12.647Z,11.20
2023-02-07T07:59:39.520Z,10.80
2023-02-07T08:02:06.538Z,10.13
2023-02-07T08:04:33.544Z,14.20
2023-02-07T08:07:00.703Z,11.48
2023-02-07T08:09:27.525Z,11.90
2023-02-07T08:11:54.309Z,11.63
2023-02-07T08:14:21.323Z,13.15
2023-02-07T08:16:48.122Z,10.32
2023-02-07T08:19:14.952Z,14.25
2023-02-07T08:21:43.909Z,13.70
2023-02-07T08:24:11.577Z,14.43
2023-02-07T08:26:38.508Z,13.43
2023-02-07T08:29:05.536Z,13.00
2023-02-07T08:31:32.647Z,13.10
2023-02-07T08:33:59.657Z,10.80
2023-02-07T08:36:26.705Z,13.35
2023-02-07T08:38:53.558Z,9.13
2023-02-07T08:41:20.464Z,11.40
2023-02-07T08:43:47.326Z,12.27
2023-02-07T08:46:14.321Z,8.60
2023-02-07T08:48:41.329Z,8.70
2023-02-07T08:51:09.982Z,9.68
2023-02-07T08:53:36.896Z,11.13
2023-02-07T08:56:04.091Z,10.52
2023-02-07T08:58:32.267Z,9.20
2023-02-07T09:00:59.147Z,9.65
2023-02-07T09:03:25.984Z,11.02
2023-02-07T09:06:00.212Z,8.43
2023-02-07T09:08:27.083Z,12.77
2023-02-07T09:10:53.917Z,9.35
2023-02-07T09:13:20.831Z,9.80
2023-02-07T09:15:57.981Z,9.55
2023-02-07T09:18:26.637Z,9.00
2023-02-07T09:20:53.864Z,8.88
2023-02-07T09:23:20.834Z,9.48
2023-02-07T09:25:52.347Z,9.07
2023-02-07T09:28:22.297Z,7.78
2023-02-07T09:30:49.995Z,8.27
2023-02-07T09:33:17.713Z,14.50
2023-02-07T09:35:47.208Z,8.05
2023-02-07T09:38:21.116Z,9.60
2023-02-07T09:40:51.044Z,7.60
2023-02-07T09:43:48.951Z,8.50
2023-02-07T09:46:25.863Z,8.50
2023-02-07T09:49:04.653Z,8.38
2023-02-07T09:51:34.836Z,7.93
2023-02-07T09:54:31.770Z,9.90
2023-02-07T09:57:06.818Z,7.45
2023-02-07T10:00:05.626Z,7.35
2023-02-07T10:02:52.050Z,7.03
2023-02-07T10:05:26.154Z,7.45
2023-02-07T10:07:52.999Z,8.10
2023-02-07T10:10:34.340Z,7.50
2023-02-07T10:13:50.514Z,8.00
2023-02-07T10:16:37.049Z,7.47
2023-02-07T10:19:19.563Z,8.02
2023-02-07T10:22:01.665Z,10.38
2023-02-07T10:25:05.777Z,7.80
2023-02-07T10:27:59.536Z,8.43
2023-02-07T10:30:31.887Z,8.05
2023-02-07T10:33:15.623Z,7.53
2023-02-07T10:35:45.716Z,7.63
2023-02-07T10:39:09.368Z,9.32
2023-02-07T10:41:39.311Z,7.43
2023-02-07T10:44:11.978Z,7.20
2023-02-07T10:46:42.908Z,7.22
2023-02-07T10:49:26.955Z,7.15
2023-02-07T10:51:59.139Z,7.55
2023-02-07T10:54:27.102Z,6.60
2023-02-07T10:57:02.820Z,8.00
2023-02-07T10:59:45.385Z,7.15
2023-02-07T11:02:33.631Z,7.18
2023-02-07T11:05:23.475Z,7.63
2023-02-07T11:08:09.324Z,7.07
2023-02-07T11:10:45.810Z,7.80
2023-02-07T11:13:17.528Z,8.73
2023-02-07T11:15:57.213Z,6.88
2023-02-07T11:19:04.746Z,8.40
2023-02-07T11:21:42.172Z,13.38
2023-02-07T11:24:27.454Z,7.90
2023-02-07T11:27:16.193Z,10.15
2023-02-07T11:29:58.327Z,7.20
2023-02-07T11:32:28.714Z,7.82
2023-02-07T11:34:59.428Z,8.18
2023-02-07T11:37:47.551Z,7.22
2023-02-07T11:40:29.555Z,6.95
2023-02-07T11:43:23.800Z,8.68
2023-02-07T11:45:59.530Z,6.13
2023-02-07T11:48:38.631Z,7.70
2023-02-07T11:51:10.048Z,7.90
2023-02-07T11:53:44.523Z,9.18
2023-02-07T11:56:39.513Z,8.57
2023-02-07T11:59:20.502Z,8.13
2023-02-07T12:02:03.508Z,6.95
2023-02-07T12:04:38.194Z,5.72
2023-02-07T12:07:12.179Z,3.53
2023-02-07T12:09:55.628Z,4.00
2023-02-07T12:12:48.461Z,4.15
2023-02-07T12:15:49.846Z,3.75
2023-02-07T12:18:36.399Z,3.70
2023-02-07T12:21:21.796Z,4.45
2023-02-07T12:24:00.943Z,4.10
2023-02-07T12:26:33.892Z,3.85
2023-02-07T12:29:32.685Z,4.55
2023-02-07T12:32:14.006Z,5.07
2023-02-07T12:34:52.168Z,4.15
2023-02-07T12:37:40.238Z,4.72
2023-02-07T12:40:33.528Z,4.45
2023-02-07T12:43:33.849Z,3.72
2023-02-07T12:46:00.865Z,6.28
2023-02-07T12:49:09.765Z,3.90
2023-02-07T12:52:10.495Z,4.43
2023-02-07T12:55:09.130Z,2.92
2023-02-07T12:58:00.053Z,3.05
2023-02-07T13:04:12.998Z,3.45
2023-02-07T13:07:15.143Z,4.00
2023-02-07T13:10:14.676Z,4.30
2023-02-07T13:13:06.225Z,4.28
2023-02-07T13:16:11.708Z,4.25
2023-02-07T13:19:00.420Z,5.13
2023-02-07T13:21:44.039Z,4.40
2023-02-07T13:24:18.466Z,4.18
2023-02-07T13:26:59.005Z,5.32
2023-02-07T13:29:30.393Z,5.03
2023-02-07T13:32:12.432Z,5.93
2023-02-07T13:34:59.334Z,5.05
2023-02-07T13:37:50.977Z,3.78
2023-02-07T13:40:27.810Z,4.75
2023-02-07T13:43:39.578Z,5.03
2023-02-07T13:46:12.731Z,4.38
2023-02-07T13:48:50.258Z,4.38
2023-02-07T13:51:51.627Z,5.10
2023-02-07T13:54:39.748Z,6.40
2023-02-07T13:57:58.038Z,5.63
2023-02-07T14:00:31.925Z,5.28
2023-02-07T14:03:06.355Z,5.90
2023-02-07T14:05:43.474Z,5.90
2023-02-07T14:08:16.558Z,8.15
2023-02-07T14:11:31.032Z,6.32
2023-02-07T14:14:25.527Z,5.10
2023-02-07T14:16:59.928Z,7.63
2023-02-07T14:19:45.580Z,5.10
2023-02-07T14:22:25.799Z,5.25
2023-02-07T14:25:07.308Z,6.85
2023-02-07T14:28:02.542Z,6.60
2023-02-07T14:30:55.991Z,8.98
2023-02-07T14:33:34.074Z,8.60
2023-02-07T14:36:13.154Z,10.18
2023-02-07T14:38:41.064Z,7.15
2023-02-07T14:41:15.210Z,9.10
2023-02-07T14:44:07.893Z,10.52
2023-02-07T14:46:51.150Z,9.65
2023-02-07T14:49:44.126Z,8.73
2023-02-07T14:52:29.484Z,9.80
2023-02-07T14:55:04.729Z,10.90
2023-02-07T14:58:03.155Z,8.60
2023-02-07T15:00:38.727Z,9.10
2023-02-07T15:03:19.010Z,11.63
2023-02-07T15:06:04.207Z,9.48
2023-02-07T15:08:34.865Z,8.00
2023-02-07T15:11:06.514Z,10.88
2023-02-07T15:13:43.767Z,10.57
2023-02-07T15:16:22.612Z,12.68
2023-02-07T15:19:14.669Z,8.45
2023-02-07T15:21:54.156Z,9.40
2023-02-07T15:24:50.965Z,10.07
2023-02-07T15:27:27.762Z,8.68
2023-02-07T15:29:59.464Z,9.02
2023-02-07T15:32:42.591Z,9.10
2023-02-07T15:35:24.426Z,10.02
2023-02-07T15:37:53.531Z,9.82
2023-02-07T15:40:26.791Z,10.25
2023-02-07T15:42:57.543Z,9.68
2023-02-07T15:45:31.697Z,8.45
2023-02-07T15:48:15.482Z,9.57
2023-02-07T15:50:42.636Z,7.07
2023-02-07T15:53:22.368Z,8.55
2023-02-07T15:55:50.740Z,11.75
2023-02-07T15:58:25.120Z,11.27
2023-02-07T16:00:53.270Z,13.77
2023-02-07T16:03:28.785Z,10.63
2023-02-07T16:06:27.532Z,10.68
2023-02-07T16:09:02.096Z,11.60
2023-02-07T16:11:31.782Z,11.77
2023-02-07T16:14:25.696Z,9.73
2023-02-07T16:16:58.277Z,12.23
2023-02-07T16:19:31.688Z,11.52
2023-02-07T16:22:07.805Z,11.70
2023-02-07T16:24:39.407Z,13.98
2023-02-07T16:27:07.534Z,15.07
2023-02-07T16:29:36.903Z,19.95
2023-02-07T16:32:04.379Z,19.17
2023-02-07T16:34:31.223Z,15.15
2023-02-07T16:36:58.258Z,15.00
2023-02-07T16:39:25.205Z,16.95
2023-02-07T16:42:01.037Z,17.15
2023-02-07T16:44:31.143Z,16.75
2023-02-07T16:46:58.179Z,13.27
2023-02-07T16:49:27.378Z,19.80
2023-02-07T16:51:54.732Z,22.20
2023-02-07T16:54:22.017Z,15.30
2023-02-07T16:56:54.467Z,17.75
2023-02-07T16:59:23.164Z,15.48
2023-02-07T17:01:54.020Z,15.65
2023-02-07T17:04:22.180Z,15.30
2023-02-07T17:06:49.789Z,13.23
2023-02-07T17:09:25.634Z,12.00
2023-02-07T17:11:53.817Z,16.27
2023-02-07T17:14:21.923Z,14.25
2023-02-07T17:16:49.466Z,12.45
2023-02-07T17:19:20.407Z,12.85
2023-02-07T17:21:48.024Z,14.52
2023-02-07T17:24:15.900Z,14.90
2023-02-07T17:26:47.525Z,14.63
2023-02-07T17:29:17.483Z,11.50
2023-02-07T17:31:45.538Z,11.65
2023-02-07T17:34:13.312Z,15.85
2023-02-07T17:36:48.458Z,13.93
2023-02-07T17:39:18.067Z,16.35
2023-02-07T17:41:45.234Z,10.63
2023-02-07T17:44:12.353Z,13.55
2023-02-07T17:46:39.202Z,16.70
2023-02-07T17:49:14.278Z,12.77
2023-02-07T17:51:41.311Z,21.88
2023-02-07T17:54:08.183Z,18.63
2023-02-07T17:56:35.240Z,17.92
2023-02-07T17:59:05.822Z,14.48
2023-02-07T18:01:33.697Z,13.45
2023-02-07T18:04:00.737Z,14.57
2023-02-07T18:06:30.377Z,13.52
2023-02-07T18:08:58.811Z,13.85
2023-02-07T18:11:27.490Z,14.27
2023-02-07T18:13:57.145Z,12.93
2023-02-07T18:16:27.013Z,12.80
2023-02-07T18:18:57.266Z,13.80
2023-02-07T18:21:25.026Z,16.35
2023-02-07T18:23:55.323Z,12.65
2023-02-07T18:26:23.048Z,14.98
2023-02-07T18:28:50.352Z,17.00
2023-02-07T18:31:21.819Z,17.15
2023-02-07T18:33:50.430Z,17.80
2023-02-07T18:36:18.994Z,17.70
2023-02-07T18:38:46.449Z,14.77
2023-02-07T18:41:21.123Z,13.98
2023-02-07T18:43:49.415Z,16.38
2023-02-07T18:46:20.281Z,15.35
2023-02-07T18:48:51.225Z,19.38
2023-02-07T18:51:19.578Z,13.80
2023-02-07T18:53:47.424Z,13.88
2023-02-07T18:56:21.996Z,13.23
2023-02-07T18:58:52.891Z,19.98
2023-02-07T19:01:20.855Z,16.73
2023-02-07T19:03:58.256Z,19.05
2023-02-07T19:06:31.559Z,16.77
2023-02-07T19:08:58.660Z,13.95
2023-02-07T19:11:26.507Z,17.42
2023-02-07T19:13:53.687Z,16.60
2023-02-07T19:16:23.756Z,15.82
2023-02-07T19:18:50.880Z,16.70
2023-02-07T19:21:26.549Z,15.45
2023-02-07T19:23:55.650Z,19.63
2023-02-07T19:26:24.409Z,22.90
2023-02-07T19:28:54.975Z,29.35
2023-02-07T19:31:22.478Z,27.38
2023-02-07T19:33:50.592Z,21.70
2023-02-07T19:36:18.984Z,17.95
2023-02-07T19:38:48.594Z,20.15
2023-02-07T19:41:19.058Z,16.73
2023-02-07T19:43:46.311Z,14.98
2023-02-07T19:46:13.567Z,18.40
2023-02-07T19:48:40.627Z,15.63
2023-02-07T19:51:12.217Z,14.90
2023-02-07T19:53:39.273Z,16.70
2023-02-07T19:56:11.405Z,16.00
2023-02-07T19:58:42.972Z,16.23
2023-02-07T20:01:10.649Z,15.48
2023-02-07T20:03:39.513Z,13.48
2023-02-07T20:06:12.250Z,14.88
2023-02-07T20:08:41.513Z,16.23
2023-02-07T20:11:15.745Z,15.45
2023-02-07T20:13:47.094Z,13.45
2023-02-07T20:16:18.326Z,15.65
2023-02-07T20:18:45.878Z,11.43
2023-02-07T20:21:17.343Z,15.95
2023-02-07T20:23:46.873Z,16.40
2023-02-07T20:26:42.573Z,12.00
2023-02-07T20:29:17.867Z,12.95
2023-02-07T20:31:47.155Z,12.95
2023-02-07T20:34:16.039Z,15.00
2023-02-07T20:36:43.809Z,11.00
2023-02-07T20:39:21.221Z,16.02
2023-02-07T20:41:50.011Z,18.42
2023-02-07T20:44:26.479Z,15.98
2023-02-07T20:46:56.033Z,15.60
2023-02-07T20:49:29.213Z,16.35
2023-02-07T20:51:58.335Z,14.82
2023-02-07T20:54:28.846Z,13.82
2023-02-07T20:56:57.092Z,17.85
2023-02-07T20:59:33.393Z,16.65
2023-02-07T21:02:01.208Z,19.30
2023-02-07T21:04:29.548Z,14.18
2023-02-07T21:06:56.570Z,17.33
2023-02-07T21:09:23.654Z,14.13
2023-02-07T21:11:52.784Z,11.98
2023-02-07T21:14:30.576Z,14.73
2023-02-07T21:17:06.096Z,13.52
2023-02-07T21:19:34.379Z,13.95
2023-02-07T21:22:01.568Z,15.95
2023-02-07T21:24:28.474Z,17.25
2023-02-07T21:26:56.975Z,20.15
2023-02-07T21:29:25.909Z,17.63
2023-02-07T21:31:53.536Z,16.05
2023-02-07T21:34:22.176Z,17.45
2023-02-07T21:36:49.701Z,17.48
2023-02-07T21:39:16.700Z,16.98
2023-02-07T21:41:45.853Z,16.40
2023-02-07T21:44:14.990Z,17.17
2023-02-07T21:46:46.096Z,13.73
2023-02-07T21:49:16.265Z,13.25
2023-02-07T21:51:46.098Z,10.23
2023-02-07T21:54:13.030Z,15.60
2023-02-07T21:56:42.310Z,10.02
2023-02-07T21:59:14.904Z,11.25
2023-02-07T22:01:43.069Z,11.88
2023-02-07T22:04:10.695Z,15.30
2023-02-07T22:06:42.012Z,11.10
2023-02-07T22:09:13.205Z,14.18
2023-02-07T22:11:40.761Z,15.45
2023-02-07T22:14:07.941Z,12.65
2023-02-07T22:16:35.244Z,11.55
2023-02-07T22:19:05.518Z,13.27
2023-02-07T22:21:36.035Z,13.23
2023-02-07T22:24:05.633Z,11.85
2023-02-07T22:26:34.808Z,13.98
2023-02-07T22:29:04.162Z,13.80
2023-02-07T22:31:36.719Z,16.90
2023-02-07T22:34:11.520Z,13.95
2023-02-07T22:36:43.084Z,15.02
2023-02-07T22:39:13.323Z,12.70
2023-02-07T22:41:40.162Z,12.23
2023-02-07T22:44:07.036Z,16.10
2023-02-07T22:46:33.885Z,12.23
2023-02-07T22:49:00.800Z,11.63
2023-02-07T22:51:35.380Z,14.05
2023-02-07T22:54:06.665Z,12.25
2023-02-07T22:56:36.187Z,11.48
2023-02-07T22:59:03.926Z,14.77
2023-02-07T23:01:39.059Z,16.35
2023-02-07T23:04:15.627Z,14.60
2023-02-07T23:06:46.422Z,15.63
2023-02-07T23:11:40.505Z,11.25
2023-02-07T23:14:07.631Z,11.95
2023-02-07T23:16:35.826Z,14.95
2023-02-07T23:19:12.167Z,12.63
2023-02-07T23:21:39.580Z,12.55
2023-02-07T23:24:07.128Z,15.18
2023-02-07T23:26:34.851Z,12.32
2023-02-07T23:29:01.801Z,11.50
2023-02-07T23:31:28.824Z,11.00
2023-02-07T23:33:55.751Z,15.90
2023-02-07T23:36:23.018Z,13.45
2023-02-07T23:38:50.766Z,18.75
2023-02-07T23:41:18.565Z,13.65
2023-02-07T23:43:46.544Z,13.00
2023-02-07T23:46:14.850Z,17.20
2023-02-07T23:48:41.846Z,13.75
2023-02-07T23:51:09.873Z,11.50
2023-02-07T23:53:36.726Z,12.60
2023-02-07T23:56:06.058Z,14.63
2023-02-07T23:58:34.047Z,11.13
